sensor_id;sensor_type;location;lat;lon;timestamp;P1;durP1;ratioP1;P2;durP2;ratioP2
24143;SDS011;12307;50.828;6.080;2023-07-24T00:01:33;0.75;;;0.75;;
24143;SDS011;12307;50.828;6.080;2023-07-24T00:03:58;0.63;;;0.63;;
24143;SDS011;12307;50.828;6.080;2023-07-24T00:06:25;0.85;;;0.85;;
24143;SDS011;12307;50.828;6.080;2023-07-24T00:08:51;0.80;;;0.80;;
24143;SDS011;12307;50.828;6.080;2023-07-24T00:11:17;0.60;;;0.60;;
24143;SDS011;12307;50.828;6.080;2023-07-24T00:13:42;0.85;;;0.80;;
24143;SDS011;12307;50.828;6.080;2023-07-24T00:16:09;0.80;;;0.80;;
24143;SDS011;12307;50.828;6.080;2023-07-24T00:18:35;0.80;;;0.80;;
24143;SDS011;12307;50.828;6.080;2023-07-24T00:21:01;1.20;;;1.10;;
24143;SDS011;12307;50.828;6.080;2023-07-24T00:23:28;1.10;;;1.00;;
24143;SDS011;12307;50.828;6.080;2023-07-24T00:25:54;0.70;;;0.70;;
24143;SDS011;12307;50.828;6.080;2023-07-24T00:28:20;0.75;;;0.75;;
24143;SDS011;12307;50.828;6.080;2023-07-24T00:30:46;0.90;;;0.90;;
24143;SDS011;12307;50.828;6.080;2023-07-24T00:33:12;0.70;;;0.70;;
24143;SDS011;12307;50.828;6.080;2023-07-24T00:35:37;0.88;;;0.88;;
24143;SDS011;12307;50.828;6.080;2023-07-24T00:38:03;0.80;;;0.80;;
24143;SDS011;12307;50.828;6.080;2023-07-24T00:40:30;0.70;;;0.70;;
24143;SDS011;12307;50.828;6.080;2023-07-24T00:42:56;1.05;;;0.80;;
24143;SDS011;12307;50.828;6.080;2023-07-24T00:45:22;0.75;;;0.75;;
24143;SDS011;12307;50.828;6.080;2023-07-24T00:47:48;0.80;;;0.80;;
24143;SDS011;12307;50.828;6.080;2023-07-24T00:50:14;0.80;;;0.80;;
24143;SDS011;12307;50.828;6.080;2023-07-24T00:52:40;0.80;;;0.80;;
24143;SDS011;12307;50.828;6.080;2023-07-24T00:55:07;0.95;;;0.90;;
24143;SDS011;12307;50.828;6.080;2023-07-24T00:57:36;0.80;;;0.80;;
24143;SDS011;12307;50.828;6.080;2023-07-24T01:00:02;0.70;;;0.70;;
24143;SDS011;12307;50.828;6.080;2023-07-24T01:02:29;0.80;;;0.80;;
24143;SDS011;12307;50.828;6.080;2023-07-24T01:04:55;0.63;;;0.63;;
24143;SDS011;12307;50.828;6.080;2023-07-24T01:07:21;0.80;;;0.80;;
24143;SDS011;12307;50.828;6.080;2023-07-24T01:09:47;0.80;;;0.80;;
24143;SDS011;12307;50.828;6.080;2023-07-24T01:12:13;0.73;;;0.73;;
24143;SDS011;12307;50.828;6.080;2023-07-24T01:14:47;0.80;;;0.80;;
24143;SDS011;12307;50.828;6.080;2023-07-24T01:17:19;1.15;;;1.05;;
24143;SDS011;12307;50.828;6.080;2023-07-24T01:19:49;0.80;;;0.80;;
24143;SDS011;12307;50.828;6.080;2023-07-24T01:22:20;1.05;;;0.95;;
24143;SDS011;12307;50.828;6.080;2023-07-24T01:25:00;0.85;;;0.80;;
24143;SDS011;12307;50.828;6.080;2023-07-24T01:27:31;0.82;;;0.82;;
24143;SDS011;12307;50.828;6.080;2023-07-24T01:29:57;0.85;;;0.80;;
24143;SDS011;12307;50.828;6.080;2023-07-24T01:32:23;0.85;;;0.85;;
24143;SDS011;12307;50.828;6.080;2023-07-24T01:34:50;1.02;;;0.98;;
24143;SDS011;12307;50.828;6.080;2023-07-24T01:37:17;0.90;;;0.90;;
24143;SDS011;12307;50.828;6.080;2023-07-24T01:39:44;1.10;;;1.00;;
24143;SDS011;12307;50.828;6.080;2023-07-24T01:42:10;0.85;;;0.85;;
24143;SDS011;12307;50.828;6.080;2023-07-24T01:44:38;0.85;;;0.85;;
24143;SDS011;12307;50.828;6.080;2023-07-24T01:47:04;0.95;;;0.90;;
24143;SDS011;12307;50.828;6.080;2023-07-24T01:49:29;0.93;;;0.90;;
24143;SDS011;12307;50.828;6.080;2023-07-24T01:51:55;0.90;;;0.82;;
24143;SDS011;12307;50.828;6.080;2023-07-24T01:54:22;0.98;;;0.90;;
24143;SDS011;12307;50.828;6.080;2023-07-24T01:56:48;0.90;;;0.90;;
24143;SDS011;12307;50.828;6.080;2023-07-24T01:59:14;0.90;;;0.90;;
24143;SDS011;12307;50.828;6.080;2023-07-24T02:01:41;0.85;;;0.85;;
24143;SDS011;12307;50.828;6.080;2023-07-24T02:04:06;0.90;;;0.90;;
24143;SDS011;12307;50.828;6.080;2023-07-24T02:06:32;0.82;;;0.82;;
24143;SDS011;12307;50.828;6.080;2023-07-24T02:08:58;0.88;;;0.88;;
24143;SDS011;12307;50.828;6.080;2023-07-24T02:11:23;1.00;;;0.90;;
24143;SDS011;12307;50.828;6.080;2023-07-24T02:13:49;0.80;;;0.80;;
24143;SDS011;12307;50.828;6.080;2023-07-24T02:16:15;0.90;;;0.90;;
24143;SDS011;12307;50.828;6.080;2023-07-24T02:18:42;1.10;;;1.00;;
24143;SDS011;12307;50.828;6.080;2023-07-24T02:21:08;0.77;;;0.77;;
24143;SDS011;12307;50.828;6.080;2023-07-24T02:23:34;0.95;;;0.90;;
24143;SDS011;12307;50.828;6.080;2023-07-24T02:26:01;1.10;;;1.00;;
24143;SDS011;12307;50.828;6.080;2023-07-24T02:28:27;1.10;;;1.00;;
24143;SDS011;12307;50.828;6.080;2023-07-24T02:30:52;0.90;;;0.90;;
24143;SDS011;12307;50.828;6.080;2023-07-24T02:33:21;1.20;;;1.00;;
24143;SDS011;12307;50.828;6.080;2023-07-24T02:35:49;1.10;;;1.02;;
24143;SDS011;12307;50.828;6.080;2023-07-24T02:38:17;1.10;;;1.00;;
24143;SDS011;12307;50.828;6.080;2023-07-24T02:40:43;1.23;;;1.08;;
24143;SDS011;12307;50.828;6.080;2023-07-24T02:43:09;1.10;;;1.00;;
24143;SDS011;12307;50.828;6.080;2023-07-24T02:45:36;1.05;;;0.80;;
24143;SDS011;12307;50.828;6.080;2023-07-24T02:48:02;0.93;;;0.93;;
24143;SDS011;12307;50.828;6.080;2023-07-24T02:50:28;1.10;;;1.00;;
24143;SDS011;12307;50.828;6.080;2023-07-24T02:52:55;0.90;;;0.90;;
24143;SDS011;12307;50.828;6.080;2023-07-24T02:55:21;0.95;;;0.85;;
24143;SDS011;12307;50.828;6.080;2023-07-24T02:57:47;1.02;;;0.95;;
24143;SDS011;12307;50.828;6.080;2023-07-24T03:00:13;1.10;;;1.00;;
24143;SDS011;12307;50.828;6.080;2023-07-24T03:02:39;0.85;;;0.85;;
24143;SDS011;12307;50.828;6.080;2023-07-24T03:05:05;0.88;;;0.82;;
24143;SDS011;12307;50.828;6.080;2023-07-24T03:07:31;1.00;;;0.90;;
24143;SDS011;12307;50.828;6.080;2023-07-24T03:09:59;0.90;;;0.90;;
24143;SDS011;12307;50.828;6.080;2023-07-24T03:12:24;1.10;;;1.00;;
24143;SDS011;12307;50.828;6.080;2023-07-24T03:14:50;0.80;;;0.80;;
24143;SDS011;12307;50.828;6.080;2023-07-24T03:17:16;1.17;;;1.08;;
24143;SDS011;12307;50.828;6.080;2023-07-24T03:19:42;0.85;;;0.80;;
24143;SDS011;12307;50.828;6.080;2023-07-24T03:22:07;0.88;;;0.88;;
24143;SDS011;12307;50.828;6.080;2023-07-24T03:24:33;0.90;;;0.90;;
24143;SDS011;12307;50.828;6.080;2023-07-24T03:27:02;0.88;;;0.88;;
24143;SDS011;12307;50.828;6.080;2023-07-24T03:29:28;1.00;;;0.90;;
24143;SDS011;12307;50.828;6.080;2023-07-24T03:31:54;0.95;;;0.93;;
24143;SDS011;12307;50.828;6.080;2023-07-24T03:34:19;1.17;;;1.08;;
24143;SDS011;12307;50.828;6.080;2023-07-24T03:36:45;1.10;;;1.00;;
24143;SDS011;12307;50.828;6.080;2023-07-24T03:39:11;1.13;;;1.02;;
24143;SDS011;12307;50.828;6.080;2023-07-24T03:41:37;1.00;;;0.90;;
24143;SDS011;12307;50.828;6.080;2023-07-24T03:44:04;0.77;;;0.77;;
24143;SDS011;12307;50.828;6.080;2023-07-24T03:46:31;0.88;;;0.88;;
24143;SDS011;12307;50.828;6.080;2023-07-24T03:48:57;1.00;;;1.00;;
24143;SDS011;12307;50.828;6.080;2023-07-24T03:51:23;0.80;;;0.80;;
24143;SDS011;12307;50.828;6.080;2023-07-24T03:53:48;1.20;;;1.10;;
24143;SDS011;12307;50.828;6.080;2023-07-24T03:56:14;1.10;;;1.00;;
24143;SDS011;12307;50.828;6.080;2023-07-24T03:58:40;1.02;;;0.93;;
24143;SDS011;12307;50.828;6.080;2023-07-24T04:01:07;1.00;;;0.85;;
24143;SDS011;12307;50.828;6.080;2023-07-24T04:03:33;1.10;;;1.00;;
24143;SDS011;12307;50.828;6.080;2023-07-24T04:05:59;0.90;;;0.90;;
24143;SDS011;12307;50.828;6.080;2023-07-24T04:08:25;1.08;;;0.98;;
24143;SDS011;12307;50.828;6.080;2023-07-24T04:10:50;1.05;;;0.93;;
24143;SDS011;12307;50.828;6.080;2023-07-24T04:13:17;0.82;;;0.82;;
24143;SDS011;12307;50.828;6.080;2023-07-24T04:15:43;1.23;;;1.00;;
24143;SDS011;12307;50.828;6.080;2023-07-24T04:18:11;1.00;;;0.98;;
24143;SDS011;12307;50.828;6.080;2023-07-24T04:20:37;0.90;;;0.90;;
24143;SDS011;12307;50.828;6.080;2023-07-24T04:23:02;1.15;;;1.05;;
24143;SDS011;12307;50.828;6.080;2023-07-24T04:25:28;1.10;;;1.00;;
24143;SDS011;12307;50.828;6.080;2023-07-24T04:27:54;1.00;;;0.93;;
24143;SDS011;12307;50.828;6.080;2023-07-24T04:30:20;0.90;;;0.90;;
24143;SDS011;12307;50.828;6.080;2023-07-24T04:32:45;1.20;;;1.10;;
24143;SDS011;12307;50.828;6.080;2023-07-24T04:35:12;0.95;;;0.90;;
24143;SDS011;12307;50.828;6.080;2023-07-24T04:37:38;1.27;;;0.98;;
24143;SDS011;12307;50.828;6.080;2023-07-24T04:40:04;1.27;;;1.17;;
24143;SDS011;12307;50.828;6.080;2023-07-24T04:42:31;1.02;;;1.00;;
24143;SDS011;12307;50.828;6.080;2023-07-24T04:44:57;1.20;;;1.10;;
24143;SDS011;12307;50.828;6.080;2023-07-24T04:47:22;1.10;;;0.98;;
24143;SDS011;12307;50.828;6.080;2023-07-24T04:49:48;1.20;;;1.10;;
24143;SDS011;12307;50.828;6.080;2023-07-24T04:52:15;0.98;;;0.90;;
24143;SDS011;12307;50.828;6.080;2023-07-24T04:54:41;1.10;;;1.00;;
24143;SDS011;12307;50.828;6.080;2023-07-24T04:57:07;1.20;;;1.10;;
24143;SDS011;12307;50.828;6.080;2023-07-24T04:59:32;1.10;;;1.00;;
24143;SDS011;12307;50.828;6.080;2023-07-24T05:01:58;1.00;;;1.00;;
24143;SDS011;12307;50.828;6.080;2023-07-24T05:04:24;0.95;;;0.95;;
24143;SDS011;12307;50.828;6.080;2023-07-24T05:06:49;1.30;;;1.13;;
24143;SDS011;12307;50.828;6.080;2023-07-24T05:09:16;1.20;;;1.00;;
24143;SDS011;12307;50.828;6.080;2023-07-24T05:11:42;0.90;;;0.90;;
24143;SDS011;12307;50.828;6.080;2023-07-24T05:14:09;0.80;;;0.80;;
24143;SDS011;12307;50.828;6.080;2023-07-24T05:16:35;1.00;;;0.90;;
24143;SDS011;12307;50.828;6.080;2023-07-24T05:19:01;0.80;;;0.80;;
24143;SDS011;12307;50.828;6.080;2023-07-24T05:21:26;1.08;;;1.00;;
24143;SDS011;12307;50.828;6.080;2023-07-24T05:23:55;1.10;;;1.00;;
24143;SDS011;12307;50.828;6.080;2023-07-24T05:26:22;0.90;;;0.90;;
24143;SDS011;12307;50.828;6.080;2023-07-24T05:28:48;1.13;;;0.80;;
24143;SDS011;12307;50.828;6.080;2023-07-24T05:31:13;0.90;;;0.90;;
24143;SDS011;12307;50.828;6.080;2023-07-24T05:33:39;0.88;;;0.88;;
24143;SDS011;12307;50.828;6.080;2023-07-24T05:36:05;1.02;;;0.93;;
24143;SDS011;12307;50.828;6.080;2023-07-24T05:38:31;1.00;;;0.90;;
24143;SDS011;12307;50.828;6.080;2023-07-24T05:40:56;1.08;;;0.98;;
24143;SDS011;12307;50.828;6.080;2023-07-24T05:43:24;1.08;;;0.98;;
24143;SDS011;12307;50.828;6.080;2023-07-24T05:45:50;0.80;;;0.80;;
24143;SDS011;12307;50.828;6.080;2023-07-24T05:48:17;0.85;;;0.85;;
24143;SDS011;12307;50.828;6.080;2023-07-24T05:50:42;0.80;;;0.80;;
24143;SDS011;12307;50.828;6.080;2023-07-24T05:53:08;0.90;;;0.90;;
24143;SDS011;12307;50.828;6.080;2023-07-24T05:55:34;1.13;;;1.02;;
24143;SDS011;12307;50.828;6.080;2023-07-24T05:58:00;0.95;;;0.95;;
24143;SDS011;12307;50.828;6.080;2023-07-24T06:00:27;0.90;;;0.90;;
24143;SDS011;12307;50.828;6.080;2023-07-24T06:02:52;0.93;;;0.90;;
24143;SDS011;12307;50.828;6.080;2023-07-24T06:05:19;0.82;;;0.82;;
24143;SDS011;12307;50.828;6.080;2023-07-24T06:07:45;0.80;;;0.80;;
24143;SDS011;12307;50.828;6.080;2023-07-24T06:10:10;0.77;;;0.77;;
24143;SDS011;12307;50.828;6.080;2023-07-24T06:12:36;0.80;;;0.80;;
24143;SDS011;12307;50.828;6.080;2023-07-24T06:15:02;0.90;;;0.90;;
24143;SDS011;12307;50.828;6.080;2023-07-24T06:17:29;1.00;;;1.00;;
24143;SDS011;12307;50.828;6.080;2023-07-24T06:19:55;0.98;;;0.98;;
24143;SDS011;12307;50.828;6.080;2023-07-24T06:22:22;0.93;;;0.90;;
24143;SDS011;12307;50.828;6.080;2023-07-24T06:24:47;0.95;;;0.90;;
24143;SDS011;12307;50.828;6.080;2023-07-24T06:27:13;0.88;;;0.88;;
24143;SDS011;12307;50.828;6.080;2023-07-24T06:29:39;0.80;;;0.80;;
24143;SDS011;12307;50.828;6.080;2023-07-24T06:32:05;0.95;;;0.95;;
24143;SDS011;12307;50.828;6.080;2023-07-24T06:34:33;1.15;;;1.05;;
24143;SDS011;12307;50.828;6.080;2023-07-24T06:36:59;0.90;;;0.90;;
24143;SDS011;12307;50.828;6.080;2023-07-24T06:39:24;0.80;;;0.80;;
24143;SDS011;12307;50.828;6.080;2023-07-24T06:41:51;0.90;;;0.90;;
24143;SDS011;12307;50.828;6.080;2023-07-24T06:44:16;1.10;;;1.00;;
24143;SDS011;12307;50.828;6.080;2023-07-24T06:46:42;0.90;;;0.90;;
24143;SDS011;12307;50.828;6.080;2023-07-24T06:49:08;0.88;;;0.88;;
24143;SDS011;12307;50.828;6.080;2023-07-24T06:51:36;0.80;;;0.80;;
24143;SDS011;12307;50.828;6.080;2023-07-24T06:54:03;0.85;;;0.85;;
24143;SDS011;12307;50.828;6.080;2023-07-24T06:56:29;1.17;;;1.08;;
24143;SDS011;12307;50.828;6.080;2023-07-24T06:58:54;1.30;;;1.10;;
24143;SDS011;12307;50.828;6.080;2023-07-24T07:01:20;1.33;;;1.23;;
24143;SDS011;12307;50.828;6.080;2023-07-24T07:03:46;1.27;;;1.17;;
24143;SDS011;12307;50.828;6.080;2023-07-24T07:06:11;1.50;;;1.20;;
24143;SDS011;12307;50.828;6.080;2023-07-24T07:08:39;1.40;;;1.30;;
24143;SDS011;12307;50.828;6.080;2023-07-24T07:11:04;2.40;;;1.40;;
24143;SDS011;12307;50.828;6.080;2023-07-24T07:13:30;1.40;;;1.30;;
24143;SDS011;12307;50.828;6.080;2023-07-24T07:15:56;1.23;;;1.10;;
24143;SDS011;12307;50.828;6.080;2023-07-24T07:18:22;1.60;;;1.50;;
24143;SDS011;12307;50.828;6.080;2023-07-24T07:20:48;1.50;;;1.40;;
24143;SDS011;12307;50.828;6.080;2023-07-24T07:23:16;1.52;;;1.42;;
24143;SDS011;12307;50.828;6.080;2023-07-24T07:25:43;1.50;;;1.33;;
24143;SDS011;12307;50.828;6.080;2023-07-24T07:28:10;1.52;;;1.42;;
24143;SDS011;12307;50.828;6.080;2023-07-24T07:30:36;1.33;;;1.20;;
24143;SDS011;12307;50.828;6.080;2023-07-24T07:33:02;1.83;;;1.67;;
24143;SDS011;12307;50.828;6.080;2023-07-24T07:35:27;1.58;;;1.42;;
24143;SDS011;12307;50.828;6.080;2023-07-24T07:37:53;1.80;;;1.70;;
24143;SDS011;12307;50.828;6.080;2023-07-24T07:40:19;1.58;;;1.40;;
24143;SDS011;12307;50.828;6.080;2023-07-24T07:42:46;2.58;;;1.98;;
24143;SDS011;12307;50.828;6.080;2023-07-24T07:45:12;1.77;;;1.67;;
24143;SDS011;12307;50.828;6.080;2023-07-24T07:47:37;1.90;;;1.77;;
24143;SDS011;12307;50.828;6.080;2023-07-24T07:50:03;1.95;;;1.60;;
24143;SDS011;12307;50.828;6.080;2023-07-24T07:52:29;2.08;;;1.75;;
24143;SDS011;12307;50.828;6.080;2023-07-24T07:54:55;1.85;;;1.70;;
24143;SDS011;12307;50.828;6.080;2023-07-24T07:57:20;2.28;;;1.80;;
24143;SDS011;12307;50.828;6.080;2023-07-24T07:59:48;1.95;;;1.70;;
24143;SDS011;12307;50.828;6.080;2023-07-24T08:02:14;1.40;;;1.30;;
24143;SDS011;12307;50.828;6.080;2023-07-24T08:04:39;1.58;;;1.48;;
24143;SDS011;12307;50.828;6.080;2023-07-24T08:07:05;1.50;;;1.40;;
24143;SDS011;12307;50.828;6.080;2023-07-24T08:09:31;1.67;;;1.58;;
24143;SDS011;12307;50.828;6.080;2023-07-24T08:11:57;1.80;;;1.60;;
24143;SDS011;12307;50.828;6.080;2023-07-24T08:14:23;1.80;;;1.63;;
24143;SDS011;12307;50.828;6.080;2023-07-24T08:16:50;1.23;;;1.13;;
24143;SDS011;12307;50.828;6.080;2023-07-24T08:19:17;1.90;;;1.70;;
24143;SDS011;12307;50.828;6.080;2023-07-24T08:21:43;1.60;;;1.50;;
24143;SDS011;12307;50.828;6.080;2023-07-24T08:24:09;1.60;;;1.50;;
24143;SDS011;12307;50.828;6.080;2023-07-24T08:26:35;1.60;;;1.50;;
24143;SDS011;12307;50.828;6.080;2023-07-24T08:29:01;1.75;;;1.50;;
24143;SDS011;12307;50.828;6.080;2023-07-24T08:31:26;1.75;;;1.42;;
24143;SDS011;12307;50.828;6.080;2023-07-24T08:33:55;1.50;;;1.40;;
24143;SDS011;12307;50.828;6.080;2023-07-24T08:36:21;1.60;;;1.50;;
24143;SDS011;12307;50.828;6.080;2023-07-24T08:38:46;1.77;;;1.58;;
24143;SDS011;12307;50.828;6.080;2023-07-24T08:41:14;1.60;;;1.50;;
24143;SDS011;12307;50.828;6.080;2023-07-24T08:43:41;1.85;;;1.50;;
24143;SDS011;12307;50.828;6.080;2023-07-24T08:46:08;1.40;;;1.30;;
24143;SDS011;12307;50.828;6.080;2023-07-24T08:48:35;1.70;;;1.45;;
24143;SDS011;12307;50.828;6.080;2023-07-24T08:51:04;1.45;;;1.35;;
24143;SDS011;12307;50.828;6.080;2023-07-24T08:53:33;1.58;;;1.48;;
24143;SDS011;12307;50.828;6.080;2023-07-24T08:56:00;1.70;;;1.60;;
24143;SDS011;12307;50.828;6.080;2023-07-24T08:58:27;1.63;;;1.50;;
24143;SDS011;12307;50.828;6.080;2023-07-24T09:00:53;1.65;;;1.50;;
24143;SDS011;12307;50.828;6.080;2023-07-24T09:03:20;1.75;;;1.63;;
24143;SDS011;12307;50.828;6.080;2023-07-24T09:05:46;1.70;;;1.50;;
24143;SDS011;12307;50.828;6.080;2023-07-24T09:08:14;1.90;;;1.60;;
24143;SDS011;12307;50.828;6.080;2023-07-24T09:10:39;1.63;;;1.50;;
24143;SDS011;12307;50.828;6.080;2023-07-24T09:13:05;1.40;;;1.30;;
24143;SDS011;12307;50.828;6.080;2023-07-24T09:15:39;1.65;;;1.55;;
24143;SDS011;12307;50.828;6.080;2023-07-24T09:18:05;1.90;;;1.70;;
24143;SDS011;12307;50.828;6.080;2023-07-24T09:20:37;1.85;;;1.55;;
24143;SDS011;12307;50.828;6.080;2023-07-24T09:23:04;1.80;;;1.50;;
24143;SDS011;12307;50.828;6.080;2023-07-24T09:25:31;1.60;;;1.50;;
24143;SDS011;12307;50.828;6.080;2023-07-24T09:27:57;1.67;;;1.50;;
24143;SDS011;12307;50.828;6.080;2023-07-24T09:30:23;1.85;;;1.50;;
24143;SDS011;12307;50.828;6.080;2023-07-24T09:32:51;1.50;;;1.40;;
24143;SDS011;12307;50.828;6.080;2023-07-24T09:35:18;1.83;;;1.73;;
24143;SDS011;12307;50.828;6.080;2023-07-24T09:37:44;1.80;;;1.65;;
24143;SDS011;12307;50.828;6.080;2023-07-24T09:40:11;1.70;;;1.60;;
24143;SDS011;12307;50.828;6.080;2023-07-24T09:42:40;1.95;;;1.63;;
24143;SDS011;12307;50.828;6.080;2023-07-24T09:45:06;1.60;;;1.40;;
24143;SDS011;12307;50.828;6.080;2023-07-24T09:47:33;1.73;;;1.50;;
24143;SDS011;12307;50.828;6.080;2023-07-24T09:49:59;1.83;;;1.58;;
24143;SDS011;12307;50.828;6.080;2023-07-24T09:52:29;2.10;;;1.83;;
24143;SDS011;12307;50.828;6.080;2023-07-24T09:54:56;2.00;;;1.67;;
24143;SDS011;12307;50.828;6.080;2023-07-24T09:57:27;2.15;;;1.58;;
24143;SDS011;12307;50.828;6.080;2023-07-24T09:59:55;1.63;;;1.52;;
24143;SDS011;12307;50.828;6.080;2023-07-24T10:02:22;1.98;;;1.60;;
24143;SDS011;12307;50.828;6.080;2023-07-24T10:04:48;1.65;;;1.48;;
24143;SDS011;12307;50.828;6.080;2023-07-24T10:07:14;1.70;;;1.60;;
24143;SDS011;12307;50.828;6.080;2023-07-24T10:09:41;2.20;;;1.80;;
24143;SDS011;12307;50.828;6.080;2023-07-24T10:12:08;1.70;;;1.60;;
24143;SDS011;12307;50.828;6.080;2023-07-24T10:14:35;1.67;;;1.40;;
24143;SDS011;12307;50.828;6.080;2023-07-24T10:17:03;1.95;;;1.70;;
24143;SDS011;12307;50.828;6.080;2023-07-24T10:19:35;2.08;;;1.48;;
24143;SDS011;12307;50.828;6.080;2023-07-24T10:22:02;1.70;;;1.42;;
24143;SDS011;12307;50.828;6.080;2023-07-24T10:24:28;2.08;;;1.85;;
24143;SDS011;12307;50.828;6.080;2023-07-24T10:26:55;1.52;;;1.42;;
24143;SDS011;12307;50.828;6.080;2023-07-24T10:29:23;1.50;;;1.40;;
24143;SDS011;12307;50.828;6.080;2023-07-24T10:31:52;1.63;;;1.52;;
24143;SDS011;12307;50.828;6.080;2023-07-24T10:34:20;1.80;;;1.70;;
24143;SDS011;12307;50.828;6.080;2023-07-24T10:36:46;1.60;;;1.50;;
24143;SDS011;12307;50.828;6.080;2023-07-24T10:39:15;1.90;;;1.42;;
24143;SDS011;12307;50.828;6.080;2023-07-24T10:41:43;2.13;;;1.92;;
24143;SDS011;12307;50.828;6.080;2023-07-24T10:44:11;1.80;;;1.70;;
24143;SDS011;12307;50.828;6.080;2023-07-24T10:46:38;1.90;;;1.77;;
24143;SDS011;12307;50.828;6.080;2023-07-24T10:49:05;1.98;;;1.70;;
24143;SDS011;12307;50.828;6.080;2023-07-24T10:51:35;1.73;;;1.63;;
24143;SDS011;12307;50.828;6.080;2023-07-24T10:54:03;1.70;;;1.60;;
24143;SDS011;12307;50.828;6.080;2023-07-24T10:56:29;1.65;;;1.52;;
24143;SDS011;12307;50.828;6.080;2023-07-24T10:58:55;2.15;;;1.85;;
24143;SDS011;12307;50.828;6.080;2023-07-24T11:01:21;1.90;;;1.80;;
24143;SDS011;12307;50.828;6.080;2023-07-24T11:03:48;1.83;;;1.70;;
24143;SDS011;12307;50.828;6.080;2023-07-24T11:06:15;2.05;;;1.85;;
24143;SDS011;12307;50.828;6.080;2023-07-24T11:08:50;1.95;;;1.85;;
24143;SDS011;12307;50.828;6.080;2023-07-24T11:11:16;2.10;;;1.90;;
24143;SDS011;12307;50.828;6.080;2023-07-24T11:13:42;2.30;;;1.98;;
24143;SDS011;12307;50.828;6.080;2023-07-24T11:16:08;1.98;;;1.77;;
24143;SDS011;12307;50.828;6.080;2023-07-24T11:18:43;2.05;;;1.85;;
24143;SDS011;12307;50.828;6.080;2023-07-24T11:21:11;1.73;;;1.63;;
24143;SDS011;12307;50.828;6.080;2023-07-24T11:23:37;2.15;;;1.95;;
24143;SDS011;12307;50.828;6.080;2023-07-24T11:26:10;2.30;;;1.95;;
24143;SDS011;12307;50.828;6.080;2023-07-24T11:28:38;2.20;;;2.00;;
24143;SDS011;12307;50.828;6.080;2023-07-24T11:31:05;1.70;;;1.60;;
24143;SDS011;12307;50.828;6.080;2023-07-24T11:33:31;2.20;;;1.90;;
24143;SDS011;12307;50.828;6.080;2023-07-24T11:35:57;1.92;;;1.80;;
24143;SDS011;12307;50.828;6.080;2023-07-24T11:38:23;2.13;;;1.80;;
24143;SDS011;12307;50.828;6.080;2023-07-24T11:40:49;2.30;;;2.10;;
24143;SDS011;12307;50.828;6.080;2023-07-24T11:43:17;2.08;;;1.88;;
24143;SDS011;12307;50.828;6.080;2023-07-24T11:45:43;2.03;;;1.83;;
24143;SDS011;12307;50.828;6.080;2023-07-24T11:48:10;1.65;;;1.55;;
24143;SDS011;12307;50.828;6.080;2023-07-24T11:50:41;1.52;;;1.42;;
24143;SDS011;12307;50.828;6.080;2023-07-24T11:53:07;1.90;;;1.75;;
24143;SDS011;12307;50.828;6.080;2023-07-24T11:55:44;1.70;;;1.60;;
24143;SDS011;12307;50.828;6.080;2023-07-24T11:58:13;1.70;;;1.60;;
24143;SDS011;12307;50.828;6.080;2023-07-24T12:00:42;1.58;;;1.48;;
24143;SDS011;12307;50.828;6.080;2023-07-24T12:03:08;1.70;;;1.60;;
24143;SDS011;12307;50.828;6.080;2023-07-24T12:05:37;1.98;;;1.77;;
24143;SDS011;12307;50.828;6.080;2023-07-24T12:08:03;1.85;;;1.67;;
24143;SDS011;12307;50.828;6.080;2023-07-24T12:10:29;1.70;;;1.60;;
24143;SDS011;12307;50.828;6.080;2023-07-24T12:12:58;2.72;;;1.50;;
24143;SDS011;12307;50.828;6.080;2023-07-24T12:15:25;1.88;;;1.50;;
24143;SDS011;12307;50.828;6.080;2023-07-24T12:17:53;1.60;;;1.50;;
24143;SDS011;12307;50.828;6.080;2023-07-24T12:20:19;1.67;;;1.48;;
24143;SDS011;12307;50.828;6.080;2023-07-24T12:22:45;1.38;;;1.27;;
24143;SDS011;12307;50.828;6.080;2023-07-24T12:25:11;1.30;;;1.20;;
24143;SDS011;12307;50.828;6.080;2023-07-24T12:27:36;1.52;;;1.42;;
24143;SDS011;12307;50.828;6.080;2023-07-24T12:30:05;1.40;;;1.30;;
24143;SDS011;12307;50.828;6.080;2023-07-24T12:32:31;1.30;;;1.20;;
24143;SDS011;12307;50.828;6.080;2023-07-24T12:34:58;1.50;;;1.40;;
24143;SDS011;12307;50.828;6.080;2023-07-24T12:37:24;1.40;;;1.23;;
24143;SDS011;12307;50.828;6.080;2023-07-24T12:39:50;1.40;;;1.30;;
24143;SDS011;12307;50.828;6.080;2023-07-24T12:42:16;2.63;;;1.20;;
24143;SDS011;12307;50.828;6.080;2023-07-24T12:44:42;1.48;;;1.30;;
24143;SDS011;12307;50.828;6.080;2023-07-24T12:47:09;1.85;;;1.27;;
24143;SDS011;12307;50.828;6.080;2023-07-24T12:49:35;1.13;;;1.02;;
24143;SDS011;12307;50.828;6.080;2023-07-24T12:52:03;1.27;;;1.17;;
24143;SDS011;12307;50.828;6.080;2023-07-24T12:54:29;1.20;;;1.10;;
24143;SDS011;12307;50.828;6.080;2023-07-24T12:56:54;1.42;;;1.30;;
24143;SDS011;12307;50.828;6.080;2023-07-24T12:59:20;1.60;;;1.10;;
24143;SDS011;12307;50.828;6.080;2023-07-24T13:01:46;1.30;;;1.13;;
24143;SDS011;12307;50.828;6.080;2023-07-24T13:04:12;1.20;;;1.10;;
24143;SDS011;12307;50.828;6.080;2023-07-24T13:06:37;1.23;;;1.10;;
24143;SDS011;12307;50.828;6.080;2023-07-24T13:09:05;0.90;;;0.90;;
24143;SDS011;12307;50.828;6.080;2023-07-24T13:11:30;1.23;;;1.13;;
24143;SDS011;12307;50.828;6.080;2023-07-24T13:13:56;1.20;;;1.00;;
24143;SDS011;12307;50.828;6.080;2023-07-24T13:16:22;1.08;;;1.00;;
24143;SDS011;12307;50.828;6.080;2023-07-24T13:18:50;1.23;;;1.10;;
24143;SDS011;12307;50.828;6.080;2023-07-24T13:21:15;1.20;;;1.08;;
24143;SDS011;12307;50.828;6.080;2023-07-24T13:23:41;1.02;;;0.93;;
24143;SDS011;12307;50.828;6.080;2023-07-24T13:26:08;1.05;;;0.90;;
24143;SDS011;12307;50.828;6.080;2023-07-24T13:28:35;1.02;;;0.90;;
24143;SDS011;12307;50.828;6.080;2023-07-24T13:31:10;0.70;;;0.70;;
24143;SDS011;12307;50.828;6.080;2023-07-24T13:33:36;0.90;;;0.90;;
24143;SDS011;12307;50.828;6.080;2023-07-24T13:36:02;1.27;;;0.90;;
24143;SDS011;12307;50.828;6.080;2023-07-24T13:38:29;1.10;;;1.00;;
24143;SDS011;12307;50.828;6.080;2023-07-24T13:40:54;1.15;;;1.02;;
24143;SDS011;12307;50.828;6.080;2023-07-24T13:43:21;0.95;;;0.88;;
24143;SDS011;12307;50.828;6.080;2023-07-24T13:45:47;0.98;;;0.73;;
24143;SDS011;12307;50.828;6.080;2023-07-24T13:48:13;1.35;;;0.80;;
24143;SDS011;12307;50.828;6.080;2023-07-24T13:50:39;0.60;;;0.60;;
24143;SDS011;12307;50.828;6.080;2023-07-24T13:53:04;2.33;;;0.85;;
24143;SDS011;12307;50.828;6.080;2023-07-24T13:55:30;0.93;;;0.90;;
24143;SDS011;12307;50.828;6.080;2023-07-24T13:57:56;1.10;;;0.98;;
24143;SDS011;12307;50.828;6.080;2023-07-24T14:00:24;0.80;;;0.80;;
24143;SDS011;12307;50.828;6.080;2023-07-24T14:02:49;0.98;;;0.90;;
24143;SDS011;12307;50.828;6.080;2023-07-24T14:05:15;0.90;;;0.90;;
24143;SDS011;12307;50.828;6.080;2023-07-24T14:07:41;1.00;;;0.90;;
24143;SDS011;12307;50.828;6.080;2023-07-24T14:10:07;0.85;;;0.85;;
24143;SDS011;12307;50.828;6.080;2023-07-24T14:12:33;0.75;;;0.70;;
24143;SDS011;12307;50.828;6.080;2023-07-24T14:14:59;0.85;;;0.80;;
24143;SDS011;12307;50.828;6.080;2023-07-24T14:17:26;1.00;;;0.90;;
24143;SDS011;12307;50.828;6.080;2023-07-24T14:19:52;1.05;;;0.95;;
24143;SDS011;12307;50.828;6.080;2023-07-24T14:22:18;1.00;;;0.90;;
24143;SDS011;12307;50.828;6.080;2023-07-24T14:24:44;0.88;;;0.80;;
24143;SDS011;12307;50.828;6.080;2023-07-24T14:27:11;1.20;;;0.77;;
24143;SDS011;12307;50.828;6.080;2023-07-24T14:29:36;1.00;;;0.90;;
24143;SDS011;12307;50.828;6.080;2023-07-24T14:32:02;1.00;;;0.90;;
24143;SDS011;12307;50.828;6.080;2023-07-24T14:34:30;1.13;;;0.93;;
24143;SDS011;12307;50.828;6.080;2023-07-24T14:36:57;0.80;;;0.80;;
24143;SDS011;12307;50.828;6.080;2023-07-24T14:39:22;1.10;;;0.80;;
24143;SDS011;12307;50.828;6.080;2023-07-24T14:41:48;1.05;;;0.95;;
24143;SDS011;12307;50.828;6.080;2023-07-24T14:44:14;1.00;;;0.90;;